This is the latest recevied weather packets stored in our database for station/object N4MGC. If no packets are shown the sender has not sent any weather packets the latest 10 day(s).
| Time | Temp. | Humidity | Pressure | Rain* | Wind** | Luminosity | Snow |
|---|---|---|---|---|---|---|---|
| 1777923516 | 26.67° C | 45% | 1014.1 hPa | 0 mm | - | 358 W/m² | - |
| 1777923213 | 26.67° C | 43% | 1014.2 hPa | 0 mm | - | 617 W/m² | - |
| 1777922912 | 26.11° C | 44% | 1014.2 hPa | 0 mm | - | 615 W/m² | - |
| 1777922609 | 26.11° C | 49% | 1014.3 hPa | 0 mm | - | 588 W/m² | - |
| 1777922308 | 26.11° C | 45% | 1014.5 hPa | 0 mm | - | 592 W/m² | - |
| 1777922005 | 26.67° C | 42% | 1014.6 hPa | 0 mm | - | 733 W/m² | - |
| 1777921700 | 26.11° C | 48% | 1014.7 hPa | 0 mm | - | 704 W/m² | - |
| 1777921396 | 26.11° C | 48% | 1014.6 hPa | 0 mm | - | 624 W/m² | - |
| 1777921093 | 26.11° C | 45% | 1014.7 hPa | 0 mm | - | 417 W/m² | - |
| 1777920790 | 26.67° C | 49% | 1014.6 hPa | 0 mm | - | 728 W/m² | - |
| 1777920486 | 26.11° C | 44% | 1014.5 hPa | 0 mm | - | 758 W/m² | - |
| 1777920182 | 25.56° C | 44% | 1014.6 hPa | 0 mm | - | 596 W/m² | - |
| 1777919878 | 26.67° C | 46% | 1014.8 hPa | 0 mm | - | 710 W/m² | - |
| 1777919575 | 26.11° C | 48% | 1014.9 hPa | 0 mm | - | 815 W/m² | - |
| 1777919273 | 26.67° C | 45% | 1015 hPa | 0 mm | - | 490 W/m² | - |
| 1777918970 | 26.67° C | 49% | 1014.9 hPa | 0 mm | - | 684 W/m² | - |
| 1777918668 | 25.56° C | 52% | 1014.9 hPa | 0 mm | - | 832 W/m² | - |
| 1777918365 | 25.56° C | 46% | 1015.1 hPa | 0 mm | - | 491 W/m² | - |
| 1777918064 | 25° C | 53% | 1015.4 hPa | 0 mm | - | 678 W/m² | - |
| 1777917762 | 24.44° C | 51% | 1015.4 hPa | 0 mm | - | 537 W/m² | - |
| 1777917459 | 25.56° C | 50% | 1015.5 hPa | 0 mm | - | 599 W/m² | - |
| 1777917156 | 25° C | 46% | 1015.4 hPa | 0 mm | - | 458 W/m² | - |
| 1777916854 | 25° C | 50% | 1015.6 hPa | 0 mm | - | 635 W/m² | - |
| 1777916552 | 25° C | 53% | 1015.5 hPa | 0 mm | - | 780 W/m² | - |
| 1777916248 | 25° C | 51% | 1015.8 hPa | 0 mm | - | 554 W/m² | - |
* Rain latest hour (hover to see other rain measurements)
** Current wind speed in m/s (hover to see current wind gust speed)